Time;durP1;ratioP1;P1;durP2;ratioP2;P2;SDS_P1;SDS_P2;PMS_P1;PMS_P2;Temp;Humidity;BMP_temperature;BMP_pressure;BME280_temperature;BME280_humidity;BME280_pressure;Samples;Min_cycle;Max_cycle;Signal;HPM_P1;HPM_P2
2024/03/17 00:00:28;;;;;;;774.77;722.30;;;4.70;99.90;;;;;;5067503;28;20459;-66
2024/03/17 00:02:55;;;;;;;792.27;740.43;;;4.80;99.90;;;;;;5060663;28;20485;-66
2024/03/17 00:05:22;;;;;;;786.33;735.23;;;4.80;99.90;;;;;;5072366;28;20287;-66
2024/03/17 00:07:49;;;;;;;781.30;730.60;;;4.80;99.90;;;;;;5072092;28;20508;-66
2024/03/17 00:10:15;;;;;;;779.60;728.00;;;4.80;99.90;;;;;;5060769;28;20554;-67
2024/03/17 00:12:42;;;;;;;783.47;733.77;;;4.80;99.90;;;;;;5067212;28;20585;-66
2024/03/17 00:15:08;;;;;;;807.53;757.43;;;4.70;99.90;;;;;;5061945;28;20457;-66
2024/03/17 00:17:35;;;;;;;808.43;757.60;;;4.70;99.90;;;;;;5051608;28;20455;-66
2024/03/17 00:20:04;;;;;;;830.67;778.37;;;4.60;99.90;;;;;;5069580;28;20476;-66
2024/03/17 00:22:36;;;;;;;829.80;777.53;;;4.60;99.90;;;;;;5072217;28;20819;-66
2024/03/17 00:25:04;;;;;;;838.60;786.47;;;4.60;99.90;;;;;;5072228;28;20450;-67
2024/03/17 00:27:30;;;;;;;845.40;792.67;;;4.50;99.90;;;;;;5071812;28;20879;-66
2024/03/17 00:29:57;;;;;;;848.27;795.07;;;4.50;99.90;;;;;;5071965;28;20462;-66
2024/03/17 00:32:23;;;;;;;849.87;796.37;;;4.50;99.90;;;;;;5071661;28;20223;-66
2024/03/17 00:34:50;;;;;;;850.57;796.30;;;4.40;99.90;;;;;;5056172;28;20461;-66
2024/03/17 00:37:16;;;;;;;873.03;816.97;;;4.40;99.90;;;;;;5071302;28;20454;-67
2024/03/17 00:39:44;;;;;;;861.67;806.20;;;4.40;99.90;;;;;;5072119;28;20458;-67
2024/03/17 00:42:10;;;;;;;858.30;802.03;;;4.30;99.90;;;;;;5071710;28;20675;-66
2024/03/17 00:44:37;;;;;;;882.00;823.83;;;4.40;99.90;;;;;;5071503;28;20569;-67
2024/03/17 00:47:02;;;;;;;900.10;839.80;;;4.40;99.90;;;;;;5071608;28;20492;-66
2024/03/17 00:49:29;;;;;;;897.37;836.00;;;4.40;99.90;;;;;;5071620;28;20458;-67
2024/03/17 00:51:55;;;;;;;894.67;832.87;;;4.40;99.90;;;;;;5071784;28;20589;-67
2024/03/17 00:54:22;;;;;;;885.07;824.37;;;4.50;99.90;;;;;;5059317;28;20471;-66
2024/03/17 00:56:49;;;;;;;887.63;827.23;;;4.40;99.90;;;;;;5066901;28;20204;-64
2024/03/17 00:59:16;;;;;;;882.10;820.97;;;4.40;99.90;;;;;;5059971;28;20490;-66
2024/03/17 01:01:43;;;;;;;885.03;822.37;;;4.40;99.90;;;;;;5066628;28;20446;-67
2024/03/17 01:04:10;;;;;;;880.17;818.07;;;4.40;99.90;;;;;;5071544;28;20489;-67
2024/03/17 01:06:38;;;;;;;891.47;826.97;;;4.40;99.90;;;;;;5071345;28;20461;-67
2024/03/17 01:09:04;;;;;;;891.20;828.00;;;4.40;99.90;;;;;;5061624;28;20982;-67
2024/03/17 01:11:30;;;;;;;886.40;823.00;;;4.40;99.90;;;;;;5065030;28;21027;-67
2024/03/17 01:13:58;;;;;;;882.03;818.20;;;4.40;99.90;;;;;;5071066;28;20985;-66
2024/03/17 01:16:24;;;;;;;886.03;822.47;;;4.40;99.90;;;;;;5069560;28;20529;-67
2024/03/17 01:18:51;;;;;;;885.73;823.57;;;4.40;99.90;;;;;;5063349;28;20462;-67
2024/03/17 01:21:17;;;;;;;869.07;805.77;;;4.40;99.90;;;;;;5072109;28;20207;-67
2024/03/17 01:23:44;;;;;;;867.93;803.30;;;4.30;99.90;;;;;;5062052;28;20474;-67
2024/03/17 01:26:09;;;;;;;895.93;830.73;;;4.30;99.90;;;;;;5055909;28;20201;-66
2024/03/17 01:28:36;;;;;;;877.13;813.13;;;4.30;99.90;;;;;;5060905;28;20834;-67
2024/03/17 01:31:07;;;;;;;881.00;817.70;;;4.20;99.90;;;;;;5075290;28;20291;-67
2024/03/17 01:33:34;;;;;;;877.63;813.33;;;4.00;99.90;;;;;;5074994;28;20485;-66
2024/03/17 01:36:00;;;;;;;882.17;816.27;;;3.90;99.90;;;;;;5074741;28;20842;-64
2024/03/17 01:38:26;;;;;;;873.63;807.80;;;3.90;99.90;;;;;;5075171;28;20454;-67
2024/03/17 01:40:52;;;;;;;882.10;815.03;;;3.80;99.90;;;;;;5074986;28;20688;-66
2024/03/17 01:43:19;;;;;;;885.40;816.97;;;3.80;99.90;;;;;;5063005;28;20471;-67
2024/03/17 01:45:45;;;;;;;894.20;823.40;;;3.80;99.90;;;;;;5055200;28;20208;-66
2024/03/17 01:48:16;;;;;;;895.17;823.93;;;3.90;99.90;;;;;;5062918;28;20992;-67
2024/03/17 01:50:43;;;;;;;896.40;826.13;;;3.90;99.90;;;;;;5069857;28;20952;-67
2024/03/17 01:53:12;;;;;;;884.40;813.73;;;3.90;99.90;;;;;;5074737;28;20481;-67
2024/03/17 01:55:39;;;;;;;874.57;805.40;;;3.90;99.90;;;;;;5074559;28;20808;-66
2024/03/17 01:58:09;;;;;;;872.00;803.10;;;3.80;99.90;;;;;;5074409;28;20454;-67
2024/03/17 02:00:36;;;;;;;881.23;812.67;;;3.70;99.90;;;;;;5074470;28;20458;-67
2024/03/17 02:03:03;;;;;;;875.50;806.53;;;3.60;99.90;;;;;;5065263;28;20494;-67
2024/03/17 02:05:30;;;;;;;880.00;809.00;;;3.50;99.90;;;;;;5068056;28;20454;-67
2024/03/17 02:07:57;;;;;;;886.33;814.07;;;3.50;99.90;;;;;;5074101;28;20901;-66
2024/03/17 02:10:23;;;;;;;896.07;822.00;;;3.50;99.90;;;;;;5074530;28;20459;-67
2024/03/17 02:12:50;;;;;;;904.90;829.77;;;3.60;99.90;;;;;;5074512;28;20857;-67
2024/03/17 02:15:15;;;;;;;902.13;826.37;;;3.70;99.90;;;;;;5063126;28;20455;-67
2024/03/17 02:17:42;;;;;;;907.57;832.00;;;3.80;99.90;;;;;;5062781;28;20959;-67
2024/03/17 02:20:11;;;;;;;907.67;832.17;;;3.90;99.90;;;;;;5064995;28;20508;-67
2024/03/17 02:22:39;;;;;;;894.70;821.30;;;3.90;99.90;;;;;;5073858;28;20608;-67
2024/03/17 02:25:08;;;;;;;891.70;817.00;;;3.80;99.90;;;;;;5074263;28;20841;-67
2024/03/17 02:27:35;;;;;;;912.50;837.40;;;3.70;99.90;;;;;;5072568;28;20458;-67
2024/03/17 02:30:01;;;;;;;907.27;832.20;;;3.60;99.90;;;;;;5073887;28;20459;-67
2024/03/17 02:32:27;;;;;;;891.57;817.57;;;3.50;99.90;;;;;;5074312;28;20454;-67
2024/03/17 02:34:53;;;;;;;892.47;818.53;;;3.40;99.90;;;;;;5074339;28;20507;-67
2024/03/17 02:37:20;;;;;;;908.80;832.37;;;3.40;99.90;;;;;;5073496;28;20462;-67
2024/03/17 02:39:47;;;;;;;922.43;845.53;;;3.40;99.90;;;;;;5073739;28;21058;-67
2024/03/17 02:42:14;;;;;;;918.43;839.73;;;3.40;99.90;;;;;;5057058;28;20490;-67
2024/03/17 02:44:41;;;;;;;924.07;845.17;;;3.50;99.90;;;;;;5067066;28;20458;-67
2024/03/17 02:47:09;;;;;;;897.70;820.80;;;3.40;99.90;;;;;;5063730;28;20959;-67
2024/03/17 02:49:39;;;;;;;897.20;821.37;;;3.30;99.90;;;;;;5073860;28;20450;-67
2024/03/17 02:52:09;;;;;;;895.57;818.17;;;3.20;99.90;;;;;;5057170;28;20544;-67
2024/03/17 02:54:36;;;;;;;891.30;813.17;;;3.30;99.90;;;;;;5059894;28;20471;-67
2024/03/17 02:57:05;;;;;;;884.97;806.27;;;3.40;99.90;;;;;;5070927;28;20454;-67
2024/03/17 02:59:33;;;;;;;897.07;818.50;;;3.50;99.90;;;;;;5073704;28;20462;-67
2024/03/17 03:02:00;;;;;;;907.93;830.30;;;3.40;99.90;;;;;;5073226;28;20488;-67
2024/03/17 03:04:27;;;;;;;901.60;825.23;;;3.20;99.90;;;;;;5073233;28;20559;-67
2024/03/17 03:06:53;;;;;;;900.20;822.50;;;3.10;99.90;;;;;;5064662;28;21033;-67
2024/03/17 03:09:25;;;;;;;888.37;811.33;;;3.10;99.90;;;;;;5053682;28;20451;-67
2024/03/17 03:11:52;;;;;;;888.53;811.83;;;3.00;99.90;;;;;;5053309;28;20533;-66
2024/03/17 03:14:21;;;;;;;896.63;820.63;;;2.90;99.90;;;;;;5073287;28;20470;-66
2024/03/17 03:16:49;;;;;;;900.27;824.60;;;2.90;99.90;;;;;;5057080;28;20451;-66
2024/03/17 03:19:16;;;;;;;897.73;820.37;;;2.80;99.90;;;;;;5061685;28;20455;-67
2024/03/17 03:21:43;;;;;;;917.07;838.83;;;2.70;99.90;;;;;;5068026;28;21033;-67
2024/03/17 03:24:09;;;;;;;926.50;848.57;;;2.70;99.90;;;;;;5072888;28;20477;-66
2024/03/17 03:26:36;;;;;;;906.40;827.90;;;2.70;99.90;;;;;;5058511;28;20455;-66
2024/03/17 03:29:04;;;;;;;908.63;829.20;;;2.60;99.90;;;;;;5070729;28;20461;-67
2024/03/17 03:31:32;;;;;;;887.00;807.43;;;2.70;99.90;;;;;;5059402;28;20466;-66
2024/03/17 03:34:01;;;;;;;897.20;816.83;;;2.70;99.90;;;;;;5052879;28;20857;-66
2024/03/17 03:36:28;;;;;;;912.43;832.27;;;2.80;99.90;;;;;;5057514;28;20450;-66
2024/03/17 03:38:55;;;;;;;923.13;841.03;;;2.80;99.90;;;;;;5071050;28;20969;-66
2024/03/17 03:41:25;;;;;;;917.83;835.50;;;2.80;99.90;;;;;;5068989;28;20447;-67
2024/03/17 03:43:52;;;;;;;923.23;840.03;;;3.00;99.90;;;;;;5059949;28;21001;-66
2024/03/17 03:46:19;;;;;;;913.40;830.03;;;3.10;99.90;;;;;;5072832;28;20458;-67
2024/03/17 03:48:47;;;;;;;937.80;853.00;;;3.20;99.90;;;;;;5072835;28;20969;-66
2024/03/17 03:51:15;;;;;;;908.77;825.30;;;3.30;99.90;;;;;;5073146;28;20553;-66
2024/03/17 03:53:42;;;;;;;910.00;826.93;;;3.50;99.90;;;;;;5072451;28;20474;-66
2024/03/17 03:56:10;;;;;;;914.10;829.20;;;3.50;99.90;;;;;;5055656;28;20479;-67
2024/03/17 03:58:36;;;;;;;901.03;817.47;;;3.70;99.90;;;;;;5066473;28;20455;-67
2024/03/17 04:01:05;;;;;;;891.93;808.97;;;3.80;99.90;;;;;;5052708;28;20470;-67
2024/03/17 04:03:32;;;;;;;916.53;832.63;;;3.80;99.90;;;;;;5052457;28;20487;-67
2024/03/17 04:06:05;;;;;;;913.07;828.37;;;3.90;99.90;;;;;;5069772;28;20806;-67
2024/03/17 04:08:31;;;;;;;921.07;836.03;;;4.00;99.90;;;;;;5059350;28;20462;-66
2024/03/17 04:10:58;;;;;;;920.17;835.57;;;4.10;99.90;;;;;;5069397;28;20481;-67
2024/03/17 04:13:25;;;;;;;919.97;835.87;;;4.20;99.90;;;;;;5072352;28;20474;-67
2024/03/17 04:15:56;;;;;;;899.70;816.73;;;4.30;99.90;;;;;;5072739;28;20457;-67
2024/03/17 04:18:24;;;;;;;922.07;839.60;;;4.40;99.90;;;;;;5072293;28;20505;-67
2024/03/17 04:20:51;;;;;;;914.80;835.10;;;4.50;99.90;;;;;;5072723;28;20457;-66
2024/03/17 04:23:20;;;;;;;908.33;830.83;;;4.50;99.90;;;;;;5072311;28;20498;-67
2024/03/17 04:25:47;;;;;;;885.13;810.93;;;4.60;99.90;;;;;;5072622;28;20520;-67
2024/03/17 04:28:15;;;;;;;860.63;789.57;;;4.60;99.90;;;;;;5055565;28;20458;-67
2024/03/17 04:30:42;;;;;;;854.17;783.77;;;4.70;99.90;;;;;;5072460;28;20454;-66
2024/03/17 04:33:09;;;;;;;850.73;783.07;;;4.70;99.90;;;;;;5069958;28;20500;-67
2024/03/17 04:35:37;;;;;;;841.30;775.03;;;4.70;99.90;;;;;;5057518;28;20995;-67
2024/03/17 04:38:04;;;;;;;836.20;771.10;;;4.80;99.90;;;;;;5071250;28;20454;-68
2024/03/17 04:40:32;;;;;;;795.13;733.67;;;4.80;99.90;;;;;;5067066;28;20459;-67
2024/03/17 04:42:59;;;;;;;777.50;719.60;;;4.80;99.90;;;;;;5051359;28;20490;-67
2024/03/17 04:45:26;;;;;;;796.07;738.03;;;4.90;99.90;;;;;;5064307;28;20937;-67
2024/03/17 04:47:52;;;;;;;785.60;729.57;;;4.90;99.90;;;;;;5071518;28;20450;-67
2024/03/17 04:50:21;;;;;;;804.60;747.00;;;4.90;99.90;;;;;;5073070;28;20461;-68
2024/03/17 04:52:48;;;;;;;820.13;762.93;;;4.80;99.90;;;;;;5059943;28;20828;-67
2024/03/17 04:55:16;;;;;;;814.67;758.10;;;4.70;99.90;;;;;;5058861;28;20494;-67
2024/03/17 04:57:45;;;;;;;812.83;757.50;;;4.60;99.90;;;;;;5075741;28;20450;-67
2024/03/17 05:00:13;;;;;;;806.00;750.90;;;4.60;99.90;;;;;;5073147;28;20484;-67
2024/03/17 05:02:40;;;;;;;806.13;751.10;;;4.50;99.90;;;;;;5061787;28;20569;-67
2024/03/17 05:05:08;;;;;;;809.20;754.67;;;4.40;99.90;;;;;;5075516;28;20462;-67
2024/03/17 05:07:34;;;;;;;809.00;754.50;;;4.40;99.90;;;;;;5075213;28;20454;-67
2024/03/17 05:10:01;;;;;;;798.87;745.23;;;4.30;99.90;;;;;;5076574;28;20451;-67
2024/03/17 05:12:28;;;;;;;822.47;767.97;;;4.20;99.90;;;;;;5076045;28;20457;-67
2024/03/17 05:14:56;;;;;;;824.43;768.87;;;4.20;99.90;;;;;;5075657;28;20820;-67
2024/03/17 05:17:23;;;;;;;822.03;766.73;;;4.10;99.90;;;;;;5075176;28;20834;-67
2024/03/17 05:19:50;;;;;;;830.70;774.70;;;4.00;99.90;;;;;;5075113;28;20453;-67
2024/03/17 05:22:17;;;;;;;828.10;771.70;;;4.00;99.90;;;;;;5075266;28;20446;-67
2024/03/17 05:24:44;;;;;;;846.07;789.10;;;4.00;99.90;;;;;;5060291;28;20455;-67
2024/03/17 05:27:10;;;;;;;843.97;785.67;;;3.90;99.90;;;;;;5071535;28;20461;-66
2024/03/17 05:29:37;;;;;;;843.10;784.30;;;3.90;99.90;;;;;;5061193;28;20453;-67
2024/03/17 05:32:06;;;;;;;848.70;788.67;;;3.90;99.90;;;;;;5075492;28;20668;-67
2024/03/17 05:34:34;;;;;;;847.00;786.30;;;3.80;99.90;;;;;;5074783;28;20505;-67
2024/03/17 05:37:01;;;;;;;853.07;791.73;;;3.80;99.90;;;;;;5058151;28;20461;-67
2024/03/17 05:39:28;;;;;;;863.10;800.80;;;3.80;99.90;;;;;;5075107;28;20823;-67
2024/03/17 05:41:55;;;;;;;863.77;800.63;;;3.90;99.90;;;;;;5066639;28;20455;-66
2024/03/17 05:44:22;;;;;;;857.93;795.00;;;3.90;99.90;;;;;;5066802;28;20489;-67
2024/03/17 05:46:48;;;;;;;861.93;799.40;;;3.90;99.90;;;;;;5074750;28;20843;-67
2024/03/17 05:49:15;;;;;;;853.83;791.97;;;3.90;99.90;;;;;;5063828;28;20463;-67
2024/03/17 05:51:43;;;;;;;852.50;790.83;;;3.90;99.90;;;;;;5054871;28;20962;-67
2024/03/17 05:54:11;;;;;;;853.37;791.20;;;3.80;99.90;;;;;;5073264;28;20595;-67
2024/03/17 05:56:38;;;;;;;858.73;795.77;;;3.80;99.90;;;;;;5074725;28;20499;-67
2024/03/17 05:59:06;;;;;;;854.50;791.13;;;3.80;99.90;;;;;;5074669;28;20876;-67
2024/03/17 06:01:33;;;;;;;853.33;789.40;;;3.80;99.90;;;;;;5060383;28;20457;-67
2024/03/17 06:03:59;;;;;;;861.10;795.97;;;3.70;99.90;;;;;;5071747;28;20485;-67
2024/03/17 06:06:27;;;;;;;861.90;796.60;;;3.70;99.90;;;;;;5075161;28;20456;-66
2024/03/17 06:08:54;;;;;;;869.80;803.60;;;3.80;99.90;;;;;;5068121;28;20455;-67
2024/03/17 06:11:21;;;;;;;859.47;793.03;;;3.80;99.90;;;;;;5056439;28;20534;-67
2024/03/17 06:13:48;;;;;;;859.33;791.77;;;3.80;99.90;;;;;;5063078;28;20474;-67
2024/03/17 06:16:15;;;;;;;863.63;795.60;;;3.80;99.90;;;;;;5071590;28;21146;-67
2024/03/17 06:18:41;;;;;;;859.57;791.13;;;3.90;99.90;;;;;;5060680;28;20460;-67
2024/03/17 06:21:09;;;;;;;849.77;780.90;;;4.00;99.90;;;;;;5074096;28;20454;-67
2024/03/17 06:23:37;;;;;;;828.90;761.90;;;4.10;99.90;;;;;;5073965;28;20989;-67
2024/03/17 06:26:05;;;;;;;837.87;771.70;;;4.20;99.90;;;;;;5072503;28;20450;-67
2024/03/17 06:28:32;;;;;;;834.43;769.63;;;4.30;99.90;;;;;;5059041;28;20458;-67
2024/03/17 06:31:01;;;;;;;820.13;756.20;;;4.30;99.90;;;;;;5074040;28;20541;-67
2024/03/17 06:33:29;;;;;;;824.37;761.00;;;4.40;99.90;;;;;;5074006;28;20545;-67
2024/03/17 06:35:56;;;;;;;836.73;771.27;;;4.50;99.90;;;;;;5057306;28;20479;-67
2024/03/17 06:38:23;;;;;;;838.10;773.83;;;4.60;99.90;;;;;;5053477;28;20466;-67
2024/03/17 06:40:51;;;;;;;842.50;777.37;;;4.70;99.90;;;;;;5053848;28;20462;-67
2024/03/17 06:43:19;;;;;;;830.10;765.73;;;4.70;99.90;;;;;;5053355;28;21025;-67
2024/03/17 06:45:54;;;;;;;837.00;771.80;;;4.80;99.90;;;;;;5069370;28;20777;-67
2024/03/17 06:48:22;;;;;;;837.67;773.80;;;4.90;99.90;;;;;;5057525;28;20460;-67
2024/03/17 06:50:48;;;;;;;831.87;767.67;;;4.90;99.90;;;;;;5073606;28;21000;-67
2024/03/17 06:53:15;;;;;;;832.93;770.17;;;5.00;99.90;;;;;;5073925;28;20478;-67
2024/03/17 06:55:42;;;;;;;828.80;766.27;;;5.00;99.90;;;;;;5073447;28;20458;-68
2024/03/17 06:58:10;;;;;;;836.40;775.00;;;5.00;99.90;;;;;;5073181;28;20460;-68
2024/03/17 07:00:37;;;;;;;824.40;765.23;;;5.10;99.90;;;;;;5073278;28;20473;-67
2024/03/17 07:03:04;;;;;;;827.30;767.63;;;5.10;99.90;;;;;;5073319;28;20496;-67
2024/03/17 07:05:32;;;;;;;825.03;765.57;;;5.10;99.90;;;;;;5068540;28;20457;-67
2024/03/17 07:07:59;;;;;;;828.53;769.67;;;5.20;99.90;;;;;;5061787;28;20450;-67
2024/03/17 07:10:26;;;;;;;829.97;772.27;;;5.30;99.90;;;;;;5073177;28;20450;-67
2024/03/17 07:12:53;;;;;;;826.50;769.37;;;5.30;99.90;;;;;;5072420;28;20557;-67
2024/03/17 07:15:21;;;;;;;820.10;764.30;;;5.40;99.90;;;;;;5061347;28;21006;-67
2024/03/17 07:17:48;;;;;;;803.97;748.70;;;5.50;99.90;;;;;;5068392;28;20454;-68
2024/03/17 07:20:15;;;;;;;793.87;740.33;;;5.60;99.90;;;;;;5070158;28;20977;-67
2024/03/17 07:22:41;;;;;;;788.93;737.77;;;5.70;99.90;;;;;;5059201;28;20556;-69
2024/03/17 07:25:09;;;;;;;760.47;712.27;;;5.80;99.90;;;;;;5063244;28;21073;-68
2024/03/17 07:27:37;;;;;;;758.30;710.23;;;5.90;99.90;;;;;;5066383;28;20579;-67
2024/03/17 07:30:06;;;;;;;708.63;666.33;;;6.10;99.90;;;;;;5072773;28;20458;-68
2024/03/17 07:32:34;;;;;;;616.57;583.63;;;6.10;99.90;;;;;;5072751;28;20461;-68
2024/03/17 07:35:01;;;;;;;594.23;564.50;;;6.30;99.90;;;;;;5071654;28;20446;-67
2024/03/17 07:37:28;;;;;;;587.77;558.90;;;6.40;99.90;;;;;;5056821;28;20977;-68
2024/03/17 07:39:55;;;;;;;426.67;408.83;;;6.50;99.90;;;;;;5072531;28;20469;-66
2024/03/17 07:42:21;;;;;;;454.93;435.70;;;6.60;99.90;;;;;;5069003;28;20451;-68
2024/03/17 07:44:48;;;;;;;433.83;415.83;;;6.80;99.90;;;;;;5060049;28;20489;-68
2024/03/17 07:47:15;;;;;;;456.03;436.93;;;6.80;99.90;;;;;;5055718;28;20972;-68
2024/03/17 07:49:47;;;;;;;419.83;402.40;;;6.90;99.90;;;;;;5072450;28;20843;-67
2024/03/17 07:52:14;;;;;;;411.43;394.03;;;7.10;99.90;;;;;;5056179;28;20455;-68
2024/03/17 07:54:40;;;;;;;355.57;340.20;;;7.30;99.90;;;;;;5072681;28;20457;-68
2024/03/17 07:57:08;;;;;;;351.40;335.70;;;7.40;99.90;;;;;;5061641;28;20462;-68
2024/03/17 07:59:36;;;;;;;270.83;259.80;;;7.60;99.90;;;;;;5052503;28;20494;-68
2024/03/17 08:02:03;;;;;;;258.17;248.03;;;7.80;99.90;;;;;;5052587;28;20455;-68
2024/03/17 08:04:29;;;;;;;147.93;142.17;;;8.00;99.90;;;;;;5071047;28;20485;-68
2024/03/17 08:06:59;;;;;;;59.70;56.67;;;8.20;99.90;;;;;;5070660;28;20450;-68
2024/03/17 08:09:25;;;;;;;30.43;28.33;;;8.40;99.90;;;;;;5050790;28;20454;-67
2024/03/17 08:11:53;;;;;;;14.80;13.40;;;8.60;99.90;;;;;;5051335;28;20452;-68
2024/03/17 08:14:20;;;;;;;9.80;8.90;;;8.60;99.90;;;;;;5054918;28;20557;-68
2024/03/17 08:16:47;;;;;;;11.80;10.60;;;8.60;99.90;;;;;;5048887;28;20476;-67
2024/03/17 08:19:13;;;;;;;12.87;9.13;;;8.70;99.90;;;;;;5051314;28;20462;-68
2024/03/17 08:21:40;;;;;;;9.90;7.80;;;8.70;99.90;;;;;;5066169;28;20450;-67
2024/03/17 08:24:08;;;;;;;8.73;7.10;;;8.90;99.90;;;;;;5052094;28;20485;-66
2024/03/17 08:26:35;;;;;;;10.13;6.90;;;9.20;99.90;;;;;;5055758;28;20934;-68
2024/03/17 08:29:02;;;;;;;9.67;6.13;;;9.40;99.90;;;;;;5070565;28;20454;-66
2024/03/17 08:31:29;;;;;;;10.20;6.70;;;9.70;99.90;;;;;;5070917;28;20450;-68
2024/03/17 08:33:55;;;;;;;8.20;6.07;;;9.90;99.90;;;;;;5070994;28;20549;-68
2024/03/17 08:36:22;;;;;;;16.30;6.40;;;10.00;99.90;;;;;;5054391;28;20460;-67
2024/03/17 08:38:50;;;;;;;9.53;5.80;;;10.00;97.70;;;;;;5063828;28;20517;-68
2024/03/17 08:41:18;;;;;;;9.03;5.63;;;10.20;99.90;;;;;;5063187;28;20545;-68
2024/03/17 08:43:45;;;;;;;9.23;5.80;;;10.30;99.40;;;;;;5070769;28;20571;-67
2024/03/17 08:46:13;;;;;;;8.70;5.67;;;10.30;97.70;;;;;;5070655;28;20455;-68
2024/03/17 08:48:41;;;;;;;11.27;5.97;;;10.30;97.70;;;;;;5064553;28;20483;-67
2024/03/17 08:51:09;;;;;;;7.80;5.00;;;10.40;97.80;;;;;;5060199;28;20620;-68
2024/03/17 08:53:37;;;;;;;8.40;5.03;;;10.60;97.80;;;;;;5057069;28;20485;-68
2024/03/17 08:56:06;;;;;;;10.60;6.27;;;10.80;97.50;;;;;;5070007;28;20838;-68
2024/03/17 08:58:34;;;;;;;11.07;6.00;;;10.90;94.70;;;;;;5056664;28;20450;-66
2024/03/17 09:01:05;;;;;;;10.07;5.10;;;11.00;91.40;;;;;;5070708;28;20461;-65
2024/03/17 09:03:32;;;;;;;9.53;5.67;;;11.10;91.40;;;;;;5056497;28;20981;-65
2024/03/17 09:05:58;;;;;;;8.23;5.57;;;11.30;91.50;;;;;;5054414;28;20466;-66
2024/03/17 09:08:26;;;;;;;10.67;6.20;;;11.40;91.50;;;;;;5055396;28;20454;-65
2024/03/17 09:10:54;;;;;;;14.13;6.00;;;11.50;91.60;;;;;;5063153;28;20458;-66
2024/03/17 09:13:23;;;;;;;8.50;5.13;;;11.40;91.50;;;;;;5054808;28;20476;-66
2024/03/17 09:15:58;;;;;;;10.30;6.53;;;11.30;86.10;;;;;;5063893;28;20836;-66
2024/03/17 09:18:25;;;;;;;7.37;4.80;;;11.30;85.80;;;;;;5043471;28;20461;-66
2024/03/17 09:21:02;;;;;;;9.83;5.27;;;11.30;78.30;;;;;;5067544;28;20454;-66
2024/03/17 09:23:29;;;;;;;8.63;4.80;;;11.30;78.20;;;;;;5058201;28;20478;-65
2024/03/17 09:25:57;;;;;;;8.77;4.40;;;11.40;80.90;;;;;;5051510;28;20485;-65
2024/03/17 09:28:24;;;;;;;9.13;5.63;;;11.70;82.90;;;;;;5067241;28;20451;-66
2024/03/17 09:30:52;;;;;;;9.80;5.53;;;12.00;91.70;;;;;;5051126;28;21016;-65
2024/03/17 09:33:21;;;;;;;9.77;5.50;;;12.00;78.70;;;;;;5062671;28;20906;-66
2024/03/17 09:35:54;;;;;;;9.10;5.10;;;12.30;79.00;;;;;;5071881;28;20446;-66
2024/03/17 09:38:22;;;;;;;7.60;5.20;;;12.60;79.30;;;;;;5062718;28;20980;-66
2024/03/17 09:40:52;;;;;;;9.50;5.33;;;12.80;77.30;;;;;;5070876;28;20515;-65
2024/03/17 09:43:19;;;;;;;8.60;5.00;;;13.00;72.10;;;;;;5063286;28;20905;-66
2024/03/17 09:45:46;;;;;;;8.80;5.20;;;13.00;70.10;;;;;;5070165;28;20852;-66
2024/03/17 09:48:17;;;;;;;7.73;4.60;;;13.10;71.90;;;;;;5071853;28;20966;-66
2024/03/17 09:50:52;;;;;;;8.93;5.27;;;13.10;71.80;;;;;;5061255;28;20450;-66
2024/03/17 09:53:25;;;;;;;9.90;4.77;;;13.30;71.20;;;;;;5058076;28;20477;-66
2024/03/17 09:55:54;;;;;;;12.50;6.33;;;13.40;70.20;;;;;;5058693;28;20447;-66
2024/03/17 09:58:21;;;;;;;9.00;4.40;;;13.80;64.40;;;;;;5054369;28;20496;-66
2024/03/17 10:00:48;;;;;;;6.80;4.53;;;14.00;65.40;;;;;;5063246;28;20512;-66
2024/03/17 10:03:41;;;;;;;8.40;5.40;;;13.90;64.50;;;;;;5064934;28;21740;-66
2024/03/17 10:06:11;;;;;;;7.20;4.67;;;13.70;57.40;;;;;;5057142;28;20443;-66
2024/03/17 10:08:42;;;;;;;8.70;5.70;;;13.70;64.30;;;;;;5060096;28;20457;-66
2024/03/17 10:11:09;;;;;;;7.93;4.73;;;13.50;65.00;;;;;;5071123;28;20454;-66
2024/03/17 10:13:35;;;;;;;11.17;5.97;;;13.60;64.30;;;;;;5053973;28;20475;-66
2024/03/17 10:16:04;;;;;;;11.40;5.63;;;13.50;64.00;;;;;;5053341;28;21016;-65
2024/03/17 10:18:31;;;;;;;8.70;5.20;;;13.60;64.30;;;;;;5066792;28;20659;-66
2024/03/17 10:20:59;;;;;;;10.07;4.67;;;13.80;64.40;;;;;;5074343;28;20508;-66
2024/03/17 10:23:28;;;;;;;10.17;5.60;;;13.90;62.20;;;;;;5070072;28;20527;-66
2024/03/17 10:25:55;;;;;;;8.33;5.10;;;14.00;56.30;;;;;;5062476;28;20504;-65
2024/03/17 10:28:22;;;;;;;9.37;5.80;;;14.10;56.40;;;;;;5073596;28;20458;-66
2024/03/17 10:30:59;;;;;;;10.67;5.10;;;14.40;51.60;;;;;;5074468;28;20447;-66
2024/03/17 10:33:27;;;;;;;8.50;5.20;;;14.90;50.80;;;;;;5069883;28;20506;-66
2024/03/17 10:36:00;;;;;;;9.70;4.97;;;15.20;48.70;;;;;;5054186;28;20494;-66
2024/03/17 10:38:29;;;;;;;11.50;5.87;;;15.00;48.60;;;;;;5059190;28;20457;-66
2024/03/17 10:40:56;;;;;;;7.57;4.90;;;15.20;48.50;;;;;;5073637;28;21056;-65
2024/03/17 10:43:25;;;;;;;11.70;5.03;;;15.70;49.00;;;;;;5073833;28;20478;-66
2024/03/17 10:45:54;;;;;;;11.87;5.43;;;15.90;40.60;;;;;;5073357;28;20482;-66
2024/03/17 10:48:23;;;;;;;8.87;5.67;;;16.10;40.10;;;;;;5071202;28;20477;-66
2024/03/17 10:50:53;;;;;;;8.80;5.00;;;16.70;32.20;;;;;;5073247;28;20507;-66
2024/03/17 10:53:26;;;;;;;13.50;5.70;;;17.10;32.50;;;;;;5055971;28;20997;-66
2024/03/17 10:56:04;;;;;;;8.20;4.60;;;17.40;32.80;;;;;;5057258;28;20949;-66
2024/03/17 10:58:37;;;;;;;12.10;5.20;;;17.60;25.30;;;;;;5053311;28;20462;-66
2024/03/17 11:01:05;;;;;;;10.30;5.50;;;17.70;19.70;;;;;;5053490;28;20505;-65
2024/03/17 11:03:33;;;;;;;10.17;5.23;;;18.00;18.30;;;;;;5053016;28;20471;-66
2024/03/17 11:06:03;;;;;;;8.60;4.73;;;17.90;18.20;;;;;;5053345;28;20447;-65
2024/03/17 11:08:32;;;;;;;11.03;6.23;;;18.00;18.30;;;;;;5053517;28;20439;-65
2024/03/17 11:11:01;;;;;;;10.70;4.97;;;18.30;15.00;;;;;;5053370;28;20477;-65
2024/03/17 11:13:28;;;;;;;12.40;4.70;;;17.80;10.60;;;;;;5053138;28;20557;-67
2024/03/17 11:15:58;;;;;;;12.87;5.07;;;18.40;18.30;;;;;;5053189;28;20499;-65
2024/03/17 11:18:38;;;;;;;9.90;5.50;;;17.90;10.70;;;;;;5052565;28;20517;-65
2024/03/17 11:21:20;;;;;;;9.87;4.87;;;17.50;10.40;;;;;;5053264;28;20872;-67
2024/03/17 11:23:58;;;;;;;9.37;5.07;;;17.20;11.40;;;;;;5053334;28;20471;-67
2024/03/17 11:26:33;;;;;;;9.30;5.37;;;17.80;18.10;;;;;;5045083;28;20446;-65
2024/03/17 11:29:06;;;;;;;10.17;6.20;;;18.10;16.90;;;;;;5053332;28;20447;-65
2024/03/17 11:31:42;;;;;;;11.10;4.50;;;17.70;10.60;;;;;;5053199;28;20535;-65
2024/03/17 11:34:45;;;;;;;8.03;4.90;;;18.00;10.80;;;;;;5052794;28;20469;-63
2024/03/17 11:37:41;;;;;;;9.30;5.17;;;18.00;7.10;;;;;;5043254;28;20459;-65
2024/03/17 11:40:24;;;;;;;7.67;4.63;;;18.20;10.90;;;;;;5052477;28;20498;-64
2024/03/17 11:43:02;;;;;;;6.73;4.20;;;17.60;8.00;;;;;;5052250;28;20471;-65
2024/03/17 11:45:29;;;;;;;7.53;4.50;;;17.70;10.60;;;;;;5043790;28;20809;-63
2024/03/17 11:47:55;;;;;;;9.40;4.90;;;17.70;8.90;;;;;;5034262;28;20486;-63
2024/03/17 11:50:22;;;;;;;8.53;5.20;;;17.50;8.00;;;;;;5047280;28;20451;-65
2024/03/17 11:52:57;;;;;;;9.40;4.50;;;17.70;10.50;;;;;;5051829;28;20221;-66
2024/03/17 11:55:24;;;;;;;8.90;4.97;;;17.80;10.60;;;;;;5044894;28;20556;-65
2024/03/17 11:57:55;;;;;;;11.43;6.60;;;18.10;6.80;;;;;;5051637;28;20500;-64
2024/03/17 12:00:25;;;;;;;8.47;4.73;;;18.50;10.60;;;;;;5052314;28;20549;-65
2024/03/17 12:02:51;;;;;;;9.70;4.40;;;18.70;3.60;;;;;;5051674;28;20521;-65
2024/03/17 12:05:18;;;;;;;8.80;4.70;;;18.80;3.70;;;;;;5051530;28;20444;-66
2024/03/17 12:07:44;;;;;;;9.93;4.70;;;18.90;3.70;;;;;;5051270;28;20684;-65
2024/03/17 12:10:13;;;;;;;10.83;5.30;;;18.90;3.70;;;;;;5051512;28;20455;-65
2024/03/17 12:12:39;;;;;;;8.60;4.50;;;18.90;3.70;;;;;;5052016;28;20247;-66
2024/03/17 12:15:17;;;;;;;9.90;4.23;;;18.80;3.70;;;;;;5051982;28;20497;-65
2024/03/17 12:17:44;;;;;;;7.80;4.80;;;19.10;3.90;;;;;;5051982;28;20481;-66
2024/03/17 12:20:19;;;;;;;7.83;3.70;;;18.60;3.40;;;;;;5052271;28;20542;-66
2024/03/17 12:22:46;;;;;;;11.60;5.50;;;18.60;3.50;;;;;;5051814;28;20498;-65
2024/03/17 12:25:19;;;;;;;9.33;4.47;;;18.60;3.50;;;;;;5052249;28;20447;-66
2024/03/17 12:27:46;;;;;;;8.60;4.70;;;18.30;3.30;;;;;;5059892;28;20844;-65
2024/03/17 12:30:14;;;;;;;9.60;4.80;;;18.40;3.40;;;;;;5052168;28;20501;-65
2024/03/17 12:32:41;;;;;;;11.20;4.80;;;18.30;3.30;;;;;;5051724;28;20477;-66